createdAt,value
2018-01-10T00:00:07.629Z,30.8
2018-01-10T00:02:05.707Z,30.8
2018-01-10T00:04:05.084Z,30.8
2018-01-10T00:06:05.841Z,30.8
2018-01-10T00:08:05.220Z,30.8
2018-01-10T00:10:05.508Z,30.8
2018-01-10T00:12:06.015Z,30.8
2018-01-10T00:14:05.779Z,30.9
2018-01-10T00:16:05.149Z,30.8
2018-01-10T00:18:10.152Z,30.8
2018-01-10T00:20:08.464Z,30.9
2018-01-10T00:22:05.195Z,30.9
2018-01-10T00:24:06.076Z,30.9
2018-01-10T00:26:08.370Z,30.9
2018-01-10T00:28:07.675Z,30.9
2018-01-10T00:30:10.471Z,30.9
2018-01-10T00:32:07.779Z,30.9
2018-01-10T00:34:05.602Z,30.9
2018-01-10T00:36:05.377Z,30.9
2018-01-10T00:38:05.140Z,30.9
2018-01-10T00:40:05.935Z,30.9
2018-01-10T00:42:05.691Z,30.9
2018-01-10T00:44:05.538Z,30.9
2018-01-10T00:46:05.353Z,30.7
2018-01-10T00:48:05.115Z,30.9
2018-01-10T00:50:05.889Z,30.9
2018-01-10T00:52:05.702Z,30.9
2018-01-10T00:54:05.451Z,30.7
2018-01-10T00:56:07.763Z,30.8
2018-01-10T00:58:05.100Z,30.7
2018-01-10T01:00:05.887Z,31
2018-01-10T01:02:05.210Z,30.7
2018-01-10T01:04:05.979Z,30.8
2018-01-10T01:06:05.908Z,31
2018-01-10T01:08:05.686Z,30.8
2018-01-10T01:10:05.453Z,30.8
2018-01-10T01:12:05.847Z,30.7
2018-01-10T01:14:08.356Z,30.8
2018-01-10T01:16:05.675Z,30.8
2018-01-10T01:18:05.620Z,30.8
2018-01-10T01:20:07.915Z,30.8
2018-01-10T01:22:05.724Z,30.8
2018-01-10T01:24:05.508Z,30.8
2018-01-10T01:26:05.330Z,30.7
2018-01-10T01:28:05.760Z,30.8
2018-01-10T01:30:05.734Z,30.8
2018-01-10T01:32:05.831Z,30.8
2018-01-10T01:34:05.658Z,30.8
2018-01-10T01:36:05.459Z,30.7
2018-01-10T01:38:05.516Z,30.8
2018-01-10T01:40:05.311Z,30.8
2018-01-10T01:42:05.150Z,30.7
2018-01-10T01:44:05.983Z,30.7
2018-01-10T01:46:05.892Z,30.7
2018-01-10T01:48:05.734Z,30.8
2018-01-10T01:50:05.894Z,30.8
2018-01-10T01:52:05.679Z,30.7
2018-01-10T01:54:07.972Z,30.7
2018-01-10T01:56:05.730Z,31
2018-01-10T01:58:08.028Z,30.9
2018-01-10T02:00:05.809Z,30.7
2018-01-10T02:02:05.595Z,30.7
2018-01-10T02:04:05.382Z,30.7
2018-01-10T02:06:05.157Z,30.7
2018-01-10T02:08:06.116Z,31
2018-01-10T02:10:05.945Z,31
2018-01-10T02:12:08.242Z,30.7
2018-01-10T02:14:05.156Z,30.7
2018-01-10T02:16:05.904Z,30.9
2018-01-10T02:18:05.896Z,30.7
2018-01-10T02:20:08.229Z,31
2018-01-10T02:22:05.993Z,30.9
2018-01-10T02:24:05.289Z,30.9
2018-01-10T02:26:07.614Z,30.7
2018-01-10T02:28:05.347Z,30.7
2018-01-10T02:30:07.672Z,30.7
2018-01-10T02:32:05.516Z,30.7
2018-01-10T02:34:05.279Z,31
2018-01-10T02:36:05.086Z,30.7
2018-01-10T02:38:05.838Z,30.7
2018-01-10T02:40:08.123Z,30.7
2018-01-10T02:42:05.879Z,30.7
2018-01-10T02:44:05.621Z,30.7
2018-01-10T02:46:07.877Z,30.7
2018-01-10T02:48:05.641Z,30.7
2018-01-10T02:50:10.517Z,30.7
2018-01-10T02:52:05.258Z,30.7
2018-01-10T02:54:08.598Z,31.2
2018-01-10T02:56:05.926Z,30.7
2018-01-10T02:58:08.239Z,30.7
2018-01-10T03:00:07.608Z,30.7
2018-01-10T03:02:06.186Z,30.7
2018-01-10T03:04:05.997Z,30.7
2018-01-10T03:06:05.732Z,30.7
2018-01-10T03:08:10.881Z,30.9
2018-01-10T03:10:05.664Z,30.7
2018-01-10T03:12:05.381Z,30.7
2018-01-10T03:14:05.440Z,30.7
2018-01-10T03:16:07.734Z,30.7
2018-01-10T03:18:05.205Z,30.7
2018-01-10T03:20:08.823Z,30.7
2018-01-10T03:22:05.595Z,30.7
2018-01-10T03:24:05.903Z,30.7
2018-01-10T03:26:05.701Z,30.7
2018-01-10T03:28:05.953Z,30.7
2018-01-10T03:30:05.756Z,30.7
2018-01-10T03:32:05.351Z,30.7
2018-01-10T03:34:05.684Z,30.7
2018-01-10T03:36:05.441Z,30.7
2018-01-10T03:38:05.220Z,30.7
2018-01-10T03:40:06.000Z,30.7
2018-01-10T03:42:10.862Z,30.7
2018-01-10T03:44:08.168Z,30.7
2018-01-10T03:46:05.938Z,30.7
2018-01-10T03:48:05.231Z,30.7
2018-01-10T03:50:06.043Z,30.7
2018-01-10T03:52:08.345Z,30.7
2018-01-10T03:54:05.107Z,30.7
2018-01-10T03:56:08.680Z,30.7
2018-01-10T03:58:05.400Z,30.7
2018-01-10T04:00:07.672Z,30.8
2018-01-10T04:02:06.436Z,30.8
2018-01-10T04:04:05.833Z,30.7
2018-01-10T04:06:10.814Z,30.7
2018-01-10T04:08:17.715Z,30.7
2018-01-10T04:10:07.975Z,30.7
2018-01-10T04:12:05.685Z,30.7
2018-01-10T04:14:05.847Z,30.7
2018-01-10T04:16:05.146Z,30.7
2018-01-10T04:18:05.277Z,30.7
2018-01-10T04:20:05.691Z,30.7
2018-01-10T04:22:07.999Z,30.7
2018-01-10T04:24:15.893Z,30.7
2018-01-10T04:26:05.672Z,30.7
2018-01-10T04:28:05.515Z,30.7
2018-01-10T04:30:05.314Z,30.7
2018-01-10T04:32:07.631Z,30.7
2018-01-10T04:34:08.024Z,30.7
2018-01-10T04:36:08.340Z,30.7
2018-01-10T04:38:08.152Z,30.7
2018-01-10T04:40:05.858Z,30.7
2018-01-10T04:42:07.666Z,30.7
2018-01-10T04:44:05.996Z,30.7
2018-01-10T04:46:08.358Z,30.7
2018-01-10T04:48:07.731Z,30.7
2018-01-10T04:50:05.495Z,30.7
2018-01-10T04:52:05.252Z,30.7
2018-01-10T04:54:11.048Z,30.7
2018-01-10T04:56:05.928Z,30.7
2018-01-10T04:58:05.206Z,30.7
2018-01-10T05:00:05.939Z,30.8
2018-01-10T05:02:06.003Z,30.7
2018-01-10T05:04:05.740Z,30.7
2018-01-10T05:06:05.602Z,30.9
2018-01-10T05:08:05.396Z,30.7
2018-01-10T05:10:05.673Z,30.7
2018-01-10T05:12:05.437Z,30.7
2018-01-10T05:14:20.397Z,30.7
2018-01-10T05:16:10.218Z,30.9
2018-01-10T05:18:05.282Z,30.9
2018-01-10T05:20:11.130Z,30.7
2018-01-10T05:22:05.873Z,30.7
2018-01-10T05:24:05.158Z,30.7
2018-01-10T05:26:06.026Z,30.7
2018-01-10T05:28:05.797Z,30.7
2018-01-10T05:30:05.633Z,30.7
2018-01-10T05:32:05.405Z,30.8
2018-01-10T05:34:05.162Z,30.7
2018-01-10T05:36:16.262Z,30.7
2018-01-10T05:38:11.617Z,31.1
2018-01-10T05:40:05.595Z,31.5
2018-01-10T05:42:07.885Z,30.9
2018-01-10T05:44:06.198Z,30.7
2018-01-10T05:46:08.488Z,30.9
2018-01-10T05:48:05.241Z,30.6
2018-01-10T05:50:11.103Z,30.7
2018-01-10T05:52:05.428Z,30.7
2018-01-10T05:54:12.767Z,30.7
2018-01-10T05:56:05.527Z,30.7
2018-01-10T05:58:05.320Z,30.9
2018-01-10T06:00:05.054Z,30.9
2018-01-10T06:02:06.128Z,30.7
2018-01-10T06:04:05.887Z,30.9
2018-01-10T06:06:05.663Z,30.7
2018-01-10T06:08:20.490Z,30.7
2018-01-10T06:10:05.214Z,31
2018-01-10T06:12:05.945Z,30.7
2018-01-10T06:14:05.738Z,30.9
2018-01-10T06:16:10.556Z,30.7
2018-01-10T06:18:05.884Z,30.7
2018-01-10T06:20:05.746Z,30.9
2018-01-10T06:22:05.491Z,30.7
2018-01-10T06:24:05.399Z,30.7
2018-01-10T06:26:05.157Z,30.9
2018-01-10T06:28:05.958Z,30.7
2018-01-10T06:30:05.289Z,30.7
2018-01-10T06:32:05.048Z,30.7
2018-01-10T06:34:05.396Z,30.7
2018-01-10T06:36:05.240Z,30.7
2018-01-10T06:38:05.984Z,30.7
2018-01-10T06:40:05.755Z,30.7
2018-01-10T06:42:08.113Z,30.7
2018-01-10T06:44:08.389Z,30.7
2018-01-10T06:46:05.143Z,30.7
2018-01-10T06:48:05.906Z,30.7
2018-01-10T06:50:05.665Z,30.7
2018-01-10T06:52:05.451Z,30.7
2018-01-10T06:54:05.215Z,30.7
2018-01-10T06:56:05.987Z,30.7
2018-01-10T06:58:05.837Z,30.7
2018-01-10T07:00:05.683Z,30.7
2018-01-10T07:02:08.003Z,30.7
2018-01-10T07:04:05.837Z,30.7
2018-01-10T07:06:07.667Z,30.7
2018-01-10T07:08:10.525Z,30.7
2018-01-10T07:10:05.271Z,30.7
2018-01-10T07:12:05.591Z,30.7
2018-01-10T07:14:05.582Z,30.7
2018-01-10T07:16:10.796Z,30.7
2018-01-10T07:18:08.477Z,30.7
2018-01-10T07:20:05.225Z,30.7
2018-01-10T07:22:05.505Z,30.7
2018-01-10T07:24:05.303Z,30.7
2018-01-10T07:26:05.602Z,30.7
2018-01-10T07:28:05.574Z,30.7
2018-01-10T07:30:05.548Z,30.7
2018-01-10T07:32:05.704Z,30.7
2018-01-10T07:34:05.563Z,30.7
2018-01-10T07:36:05.864Z,30.7
2018-01-10T07:38:05.624Z,30.8
2018-01-10T07:40:10.575Z,30.7
2018-01-10T07:42:05.604Z,30.7
2018-01-10T07:44:05.943Z,30.7
2018-01-10T07:46:08.178Z,30.7
2018-01-10T07:48:05.905Z,30.7
2018-01-10T07:50:07.867Z,30.7
2018-01-10T07:52:05.712Z,30.7
2018-01-10T07:54:05.546Z,30.7
2018-01-10T07:56:05.312Z,30.7
2018-01-10T07:58:08.628Z,30.9
2018-01-10T08:00:07.969Z,30.7
2018-01-10T08:02:05.385Z,30.9
2018-01-10T08:04:05.311Z,30.9
2018-01-10T08:06:05.581Z,30.9
2018-01-10T08:08:05.442Z,30.9
2018-01-10T08:10:05.196Z,30.9
2018-01-10T08:12:06.302Z,30.8
2018-01-10T08:14:05.964Z,30.8
2018-01-10T08:16:05.756Z,30.8
2018-01-10T08:18:13.257Z,31
2018-01-10T08:20:08.036Z,31
2018-01-10T08:22:05.769Z,31
2018-01-10T08:24:05.618Z,31
2018-01-10T08:26:10.512Z,30.9
2018-01-10T08:28:05.257Z,30.9
2018-01-10T08:30:06.046Z,30.9
2018-01-10T08:32:06.037Z,30.9
2018-01-10T08:34:08.510Z,31.1
2018-01-10T08:36:05.360Z,31.2
2018-01-10T08:38:10.731Z,31.1
2018-01-10T08:40:05.508Z,31.1
2018-01-10T08:42:05.334Z,31.1
2018-01-10T08:44:05.139Z,31.1
2018-01-10T08:46:05.394Z,31.1
2018-01-10T08:48:05.740Z,31.1
2018-01-10T08:50:05.532Z,31.1
2018-01-10T08:52:05.326Z,31
2018-01-10T08:54:05.371Z,31
2018-01-10T08:56:05.212Z,31
2018-01-10T08:58:05.969Z,31
2018-01-10T09:00:05.751Z,31
2018-01-10T09:02:10.590Z,31
2018-01-10T09:04:05.992Z,31
2018-01-10T09:06:05.753Z,31.1
2018-01-10T09:08:05.537Z,31
2018-01-10T09:10:07.799Z,31.1
2018-01-10T09:12:05.528Z,31.1
2018-01-10T09:14:15.321Z,31.1
2018-01-10T09:16:21.091Z,31.1
2018-01-10T09:18:08.535Z,31.1
2018-01-10T09:20:06.266Z,30.9
2018-01-10T09:22:08.189Z,31.1
2018-01-10T09:24:13.331Z,31.1
2018-01-10T09:26:05.809Z,30.9
2018-01-10T09:28:06.051Z,31.1
2018-01-10T09:30:05.939Z,31
2018-01-10T09:32:06.932Z,31.2
2018-01-10T09:34:05.639Z,31.2
2018-01-10T09:36:10.498Z,30.9
2018-01-10T09:38:05.456Z,30.9
2018-01-10T09:40:05.823Z,30.9
2018-01-10T09:42:05.597Z,30.9
2018-01-10T09:44:05.667Z,30.9
2018-01-10T09:46:08.214Z,30.9
2018-01-10T09:48:06.007Z,30.9
2018-01-10T09:50:05.852Z,30.9
2018-01-10T09:52:05.614Z,30.9
2018-01-10T09:54:05.451Z,30.9
2018-01-10T09:56:07.777Z,30.9
2018-01-10T09:58:07.577Z,30.9
2018-01-10T10:00:05.368Z,30.9
2018-01-10T10:02:05.153Z,30.9
2018-01-10T10:04:10.935Z,30.9
2018-01-10T10:06:05.655Z,30.9
2018-01-10T10:08:05.391Z,30.9
2018-01-10T10:10:07.729Z,30.9
2018-01-10T10:12:05.512Z,30.9
2018-01-10T10:14:05.454Z,31.2
2018-01-10T10:16:05.735Z,31.1
2018-01-10T10:18:05.755Z,30.9
2018-01-10T10:20:05.555Z,31.1
2018-01-10T10:22:05.288Z,30.9
2018-01-10T10:24:05.597Z,31.1
2018-01-10T10:26:05.428Z,30.9
2018-01-10T10:28:05.191Z,30.8
2018-01-10T10:30:05.979Z,30.9
2018-01-10T10:32:08.300Z,30.9
2018-01-10T10:34:05.102Z,30.9
2018-01-10T10:36:10.915Z,31.1
2018-01-10T10:38:05.707Z,31.1
2018-01-10T10:40:05.479Z,31.2
2018-01-10T10:42:05.250Z,31.1
2018-01-10T10:44:08.558Z,31.1
2018-01-10T10:46:12.951Z,30.9
2018-01-10T10:48:05.718Z,31.1
2018-01-10T10:50:05.479Z,31.1
2018-01-10T10:52:05.244Z,30.9
2018-01-10T10:54:06.003Z,30.9
2018-01-10T10:56:05.777Z,31.1
2018-01-10T10:58:13.129Z,31.1
2018-01-10T11:00:05.925Z,31.1
2018-01-10T11:02:05.713Z,31.1
2018-01-10T11:04:10.530Z,31
2018-01-10T11:06:05.279Z,31
2018-01-10T11:08:13.592Z,31.2
2018-01-10T11:10:05.351Z,31.2
2018-01-10T11:12:05.619Z,31.2
2018-01-10T11:14:05.351Z,31.2
2018-01-10T11:16:05.169Z,31.2
2018-01-10T11:18:05.123Z,31.2
2018-01-10T11:20:06.033Z,31.2
2018-01-10T11:22:05.816Z,31.2
2018-01-10T11:24:05.566Z,31.2
2018-01-10T11:26:05.315Z,31.2
2018-01-10T11:28:07.804Z,31.2
2018-01-10T11:30:10.206Z,31.2
2018-01-10T11:32:05.521Z,31.2
2018-01-10T11:34:10.838Z,31.4
2018-01-10T11:36:05.572Z,31.1
2018-01-10T11:38:10.435Z,31.3
2018-01-10T11:40:05.177Z,31.3
2018-01-10T11:42:08.540Z,31.3
2018-01-10T11:44:05.862Z,31.1
2018-01-10T11:46:05.606Z,31.1
2018-01-10T11:48:07.951Z,31.1
2018-01-10T11:50:07.835Z,31.3
2018-01-10T11:52:10.651Z,31.1
2018-01-10T11:54:05.430Z,31.1
2018-01-10T11:56:05.750Z,31.3
2018-01-10T11:58:05.500Z,31.3
2018-01-10T12:00:10.805Z,31.3
2018-01-10T12:02:05.638Z,31.3
2018-01-10T12:04:05.350Z,31
2018-01-10T12:06:05.242Z,31.1
2018-01-10T12:08:08.565Z,31.1
2018-01-10T12:10:05.333Z,31.1
2018-01-10T12:12:08.370Z,31.1
2018-01-10T12:14:07.685Z,31.3
2018-01-10T12:16:05.450Z,31.3
2018-01-10T12:18:05.509Z,31.3
2018-01-10T12:20:05.311Z,31.1
2018-01-10T12:22:08.182Z,31.3
2018-01-10T12:24:05.934Z,31.3
2018-01-10T12:26:05.803Z,31.3
2018-01-10T12:28:05.546Z,31.3
2018-01-10T12:30:05.366Z,31.3
2018-01-10T12:32:05.135Z,31.3
2018-01-10T12:34:11.017Z,31.3
2018-01-10T12:36:05.792Z,31.2
2018-01-10T12:38:05.616Z,31.3
2018-01-10T12:40:05.375Z,31.3
2018-01-10T12:42:05.111Z,31.3
2018-01-10T12:44:05.867Z,31.3
2018-01-10T12:46:05.649Z,31.3
2018-01-10T12:48:07.907Z,31.3
2018-01-10T12:50:05.737Z,31.3
2018-01-10T12:52:07.731Z,31.3
2018-01-10T12:54:08.119Z,31.2
2018-01-10T12:56:05.992Z,31.2
2018-01-10T12:58:10.429Z,31.3
2018-01-10T13:00:05.165Z,31.3
2018-01-10T13:02:05.964Z,31.2
2018-01-10T13:04:10.860Z,31.3
2018-01-10T13:06:05.670Z,31.2
2018-01-10T13:08:05.477Z,31.2
2018-01-10T13:10:05.783Z,31.2
2018-01-10T13:12:05.585Z,31.2
2018-01-10T13:14:05.406Z,31.2
2018-01-10T13:16:05.180Z,31.2
2018-01-10T13:18:05.610Z,31.2
2018-01-10T13:20:05.369Z,31.2
2018-01-10T13:22:07.716Z,31.2
2018-01-10T13:24:18.151Z,31.3
2018-01-10T13:26:05.919Z,31.2
2018-01-10T13:28:05.738Z,31.2
2018-01-10T13:30:05.570Z,31.2
2018-01-10T13:32:05.289Z,31.3
2018-01-10T13:34:05.566Z,31.3
2018-01-10T13:36:05.875Z,31.3
2018-01-10T13:38:05.167Z,31.3
2018-01-10T13:40:05.459Z,31.1
2018-01-10T13:42:05.213Z,31.3
2018-01-10T13:44:05.937Z,31.1
2018-01-10T13:46:05.696Z,31.1
2018-01-10T13:48:07.996Z,31.3
2018-01-10T13:50:08.291Z,31.1
2018-01-10T13:52:07.612Z,31.1
2018-01-10T13:54:05.328Z,31.1
2018-01-10T13:56:05.175Z,31.1
2018-01-10T13:58:05.950Z,31.2
2018-01-10T14:00:05.931Z,31.2
2018-01-10T14:02:05.666Z,31.1
2018-01-10T14:04:05.768Z,31.2
2018-01-10T14:06:13.169Z,31.1
2018-01-10T14:08:06.064Z,31.1
2018-01-10T14:10:05.477Z,31.2
2018-01-10T14:12:05.254Z,31.4
2018-01-10T14:14:05.643Z,31.5
2018-01-10T14:16:05.468Z,31.5
2018-01-10T14:18:07.963Z,31.4
2018-01-10T14:20:05.836Z,31.5
2018-01-10T14:22:05.584Z,31.5
2018-01-10T14:24:05.537Z,31.5
2018-01-10T14:26:05.368Z,31.4
2018-01-10T14:28:05.137Z,31.5
2018-01-10T14:30:05.998Z,31.5
2018-01-10T14:32:05.800Z,31.5
2018-01-10T14:34:05.715Z,31.5
2018-01-10T14:36:07.657Z,31.5
2018-01-10T14:38:05.448Z,31.5
2018-01-10T14:40:05.265Z,31.5
2018-01-10T14:42:06.028Z,31.5
2018-01-10T14:44:05.556Z,31.7
2018-01-10T14:46:05.889Z,31.5
2018-01-10T14:48:05.690Z,31.5
2018-01-10T14:50:05.513Z,31.8
2018-01-10T14:52:05.314Z,31.5
2018-01-10T14:54:05.635Z,31.6
2018-01-10T14:56:06.020Z,31.6
2018-01-10T14:58:05.913Z,31.5
2018-01-10T15:00:05.649Z,31.6
2018-01-10T15:02:05.425Z,31.6
2018-01-10T15:04:08.579Z,31.8
2018-01-10T15:06:06.120Z,31.8
2018-01-10T15:08:05.858Z,31.8
2018-01-10T15:10:13.217Z,31.8
2018-01-10T15:12:06.063Z,31.8
2018-01-10T15:14:05.887Z,31.8
2018-01-10T15:16:05.714Z,31.8
2018-01-10T15:18:05.713Z,31.8
2018-01-10T15:20:05.550Z,31.8
2018-01-10T15:22:05.904Z,31.8
2018-01-10T15:24:05.651Z,31.8
2018-01-10T15:26:05.396Z,31.8
2018-01-10T15:28:07.738Z,31.8
2018-01-10T15:30:05.513Z,31.8
2018-01-10T15:32:08.367Z,31.8
2018-01-10T15:34:08.695Z,31.8
2018-01-10T15:36:05.475Z,31.8
2018-01-10T15:38:05.245Z,31.8
2018-01-10T15:40:05.986Z,32.1
2018-01-10T15:42:05.825Z,32.1
2018-01-10T15:44:05.586Z,32.2
2018-01-10T15:46:05.329Z,32.1
2018-01-10T15:48:10.754Z,32.3
2018-01-10T15:50:05.120Z,32.5
2018-01-10T15:52:05.863Z,32.3
2018-01-10T15:54:05.625Z,32.4
2018-01-10T15:56:05.361Z,32.4
2018-01-10T15:58:05.641Z,32.4
2018-01-10T16:00:05.442Z,32.5
2018-01-10T16:02:05.223Z,32.5
2018-01-10T16:04:05.040Z,32.6
2018-01-10T16:06:10.243Z,32.5
2018-01-10T16:08:06.845Z,32.5
2018-01-10T16:10:05.553Z,32.5
2018-01-10T16:12:05.409Z,32.3
2018-01-10T16:14:05.673Z,32.4
2018-01-10T16:16:05.409Z,32.4
2018-01-10T16:18:11.679Z,32.3
2018-01-10T16:20:05.706Z,32.3
2018-01-10T16:22:05.477Z,32.3
2018-01-10T16:24:05.459Z,32.3
2018-01-10T16:26:06.164Z,32.6
2018-01-10T16:28:05.506Z,32.3
2018-01-10T16:30:08.386Z,32.4
2018-01-10T16:32:05.121Z,32.4
2018-01-10T16:34:06.197Z,32.4
2018-01-10T16:36:06.157Z,32.4
2018-01-10T16:38:06.929Z,32.4
2018-01-10T16:40:08.015Z,32.4
2018-01-10T16:42:05.821Z,32.4
2018-01-10T16:44:05.811Z,32.3
2018-01-10T16:46:05.645Z,32.4
2018-01-10T16:48:06.782Z,32.4
2018-01-10T16:50:05.577Z,31.9
2018-01-10T16:52:05.336Z,31.8
2018-01-10T16:54:05.145Z,31.3
2018-01-10T16:56:06.002Z,30.8
2018-01-10T16:58:05.316Z,30.5
2018-01-10T17:00:07.622Z,30.5
2018-01-10T17:02:05.886Z,30.5
2018-01-10T17:04:05.749Z,30.3
2018-01-10T17:06:05.494Z,30.1
2018-01-10T17:08:05.220Z,29.8
2018-01-10T17:10:05.038Z,29.6
2018-01-10T17:12:05.836Z,29.3
2018-01-10T17:14:05.587Z,29.2
2018-01-10T17:16:05.386Z,29.2
2018-01-10T17:18:05.862Z,29
2018-01-10T17:20:05.176Z,28.8
2018-01-10T17:22:04.960Z,28.8
2018-01-10T17:24:13.438Z,28.8
2018-01-10T17:26:05.810Z,28.8
2018-01-10T17:28:05.553Z,28.8
2018-01-10T17:30:05.256Z,28.8
2018-01-10T17:32:05.093Z,28.7
2018-01-10T17:34:05.440Z,28.7
2018-01-10T17:36:05.192Z,28.6
2018-01-10T17:38:12.558Z,28.7
2018-01-10T17:40:06.370Z,28.7
2018-01-10T17:42:07.753Z,28.6
2018-01-10T17:44:05.496Z,28.5
2018-01-10T17:46:05.372Z,28.5
2018-01-10T17:48:05.169Z,28.4
2018-01-10T17:50:05.529Z,28.3
2018-01-10T17:52:07.888Z,28.3
2018-01-10T17:54:05.265Z,28.2
2018-01-10T17:56:05.371Z,28.3
2018-01-10T17:58:07.659Z,28.4
2018-01-10T18:00:05.462Z,28.2
2018-01-10T18:02:05.813Z,28.3
2018-01-10T18:04:05.718Z,28.2
2018-01-10T18:06:05.560Z,28.4
2018-01-10T18:08:12.903Z,28.5
2018-01-10T18:10:05.901Z,28.4
2018-01-10T18:12:10.258Z,28.6
2018-01-10T18:14:05.660Z,28.6
2018-01-10T18:16:07.990Z,28.8
2018-01-10T18:18:05.529Z,28.8
2018-01-10T18:20:05.828Z,28.8
2018-01-10T18:22:08.783Z,29
2018-01-10T18:24:13.698Z,29
2018-01-10T18:26:06.005Z,29
2018-01-10T18:28:05.551Z,29.1
2018-01-10T18:30:06.953Z,29.1
2018-01-10T18:32:10.578Z,29.4
2018-01-10T18:34:05.362Z,29.4
2018-01-10T18:36:05.296Z,29.4
2018-01-10T18:38:07.616Z,29.5
2018-01-10T18:40:05.740Z,29.5
2018-01-10T18:42:05.116Z,29.5
2018-01-10T18:44:08.705Z,29.7
2018-01-10T18:46:07.959Z,29.7
2018-01-10T18:48:06.880Z,29.7
2018-01-10T18:50:06.706Z,29.7
2018-01-10T18:52:05.176Z,29.9
2018-01-10T18:54:14.931Z,29.9
2018-01-10T18:56:05.352Z,29.9
2018-01-10T18:58:05.127Z,30
2018-01-10T19:00:06.104Z,30
2018-01-10T19:02:08.356Z,30
2018-01-10T19:04:05.379Z,30
2018-01-10T19:06:05.704Z,30.2
2018-01-10T19:08:05.460Z,30.1
2018-01-10T19:10:05.294Z,30.1
2018-01-10T19:12:05.044Z,30.2
2018-01-10T19:14:10.873Z,30.7
2018-01-10T19:16:05.644Z,30.5
2018-01-10T19:18:05.582Z,30.6
2018-01-10T19:20:05.336Z,30.5
2018-01-10T19:22:14.119Z,30.8
2018-01-10T19:24:05.971Z,30.9
2018-01-10T19:26:05.706Z,30.8
2018-01-10T19:28:05.513Z,30.7
2018-01-10T19:30:05.281Z,30.8
2018-01-10T19:32:05.071Z,30.8
2018-01-10T19:34:05.810Z,30.8
2018-01-10T19:36:05.101Z,30.9
2018-01-10T19:38:05.899Z,30.9
2018-01-10T19:40:08.235Z,31.1
2018-01-10T19:42:05.989Z,31
2018-01-10T19:44:05.756Z,31.1
2018-01-10T19:46:05.712Z,31.1
2018-01-10T19:48:05.475Z,31.2
2018-01-10T19:50:05.716Z,31.2
2018-01-10T19:52:07.955Z,31.1
2018-01-10T19:54:07.789Z,31.4
2018-01-10T19:56:05.594Z,31.2
2018-01-10T19:58:10.484Z,31.2
2018-01-10T20:00:05.272Z,31.2
2018-01-10T20:02:06.070Z,31.3
2018-01-10T20:04:06.187Z,31.3
2018-01-10T20:06:06.018Z,31.3
2018-01-10T20:08:06.021Z,31.3
2018-01-10T20:10:07.881Z,31.4
2018-01-10T20:12:05.785Z,31.4
2018-01-10T20:14:08.062Z,31.4
2018-01-10T20:16:05.853Z,31.4
2018-01-10T20:18:10.960Z,31.4
2018-01-10T20:20:05.255Z,31.4
2018-01-10T20:22:08.769Z,31.5
2018-01-10T20:24:13.335Z,31.4
2018-01-10T20:26:05.425Z,31.4
2018-01-10T20:28:05.131Z,31.5
2018-01-10T20:30:05.892Z,31.4
2018-01-10T20:32:05.895Z,31.7
2018-01-10T20:34:10.807Z,31.7
2018-01-10T20:36:05.902Z,31.7
2018-01-10T20:38:06.168Z,31.6
2018-01-10T20:40:06.378Z,31.7
2018-01-10T20:42:05.495Z,31.7
2018-01-10T20:44:05.303Z,31.7
2018-01-10T20:46:06.098Z,31.7
2018-01-10T20:48:05.915Z,31.8
2018-01-10T20:50:05.656Z,31.8
2018-01-10T20:52:05.412Z,31.9
2018-01-10T20:54:05.238Z,32.1
2018-01-10T20:56:06.026Z,32.1
2018-01-10T20:58:05.829Z,31.8
2018-01-10T21:00:05.882Z,32
2018-01-10T21:02:05.849Z,32
2018-01-10T21:04:07.009Z,32
2018-01-10T21:06:05.901Z,32.2
2018-01-10T21:08:05.698Z,31.9
2018-01-10T21:10:07.015Z,32.1
2018-01-10T21:12:08.048Z,32.1
2018-01-10T21:14:06.077Z,32
2018-01-10T21:16:05.867Z,32
2018-01-10T21:18:05.887Z,32
2018-01-10T21:20:08.282Z,32.2
2018-01-10T21:22:05.424Z,32.2
2018-01-10T21:24:05.297Z,32.1
2018-01-10T21:26:05.601Z,32.2
2018-01-10T21:28:08.460Z,32.1
2018-01-10T21:30:05.756Z,32.1
2018-01-10T21:32:05.495Z,32
2018-01-10T21:34:05.269Z,32.1
2018-01-10T21:36:05.171Z,32.1
2018-01-10T21:38:05.931Z,32.3
2018-01-10T21:40:05.261Z,32
2018-01-10T21:42:06.116Z,32
2018-01-10T21:44:06.002Z,31.7
2018-01-10T21:46:05.421Z,31.8
2018-01-10T21:48:08.562Z,31.9
2018-01-10T21:50:07.941Z,31.7
2018-01-10T21:52:05.285Z,32
2018-01-10T21:54:05.119Z,31.7
2018-01-10T21:56:06.030Z,31.8
2018-01-10T21:58:08.366Z,31.8
2018-01-10T22:00:05.138Z,31.8
2018-01-10T22:02:08.447Z,31.7
2018-01-10T22:04:05.187Z,31.9
2018-01-10T22:06:05.952Z,31.7
2018-01-10T22:08:20.905Z,31.8
2018-01-10T22:10:09.534Z,31.8
2018-01-10T22:12:05.705Z,31.8
2018-01-10T22:14:05.513Z,31.8
2018-01-10T22:16:07.937Z,31.6
2018-01-10T22:18:06.018Z,31.6
2018-01-10T22:20:06.008Z,31.7
2018-01-10T22:22:05.297Z,31.8
2018-01-10T22:24:05.104Z,31.8
2018-01-10T22:26:05.889Z,31.8
2018-01-10T22:28:08.235Z,31.8
2018-01-10T22:30:06.080Z,31.8
2018-01-10T22:32:06.047Z,31.9
2018-01-10T22:34:05.879Z,31.9
2018-01-10T22:36:05.682Z,31.6
2018-01-10T22:38:05.465Z,31.9
2018-01-10T22:40:05.261Z,31.6
2018-01-10T22:42:08.601Z,31.8
2018-01-10T22:44:05.903Z,31.8
2018-01-10T22:46:05.166Z,31.8
2018-01-10T22:48:05.562Z,31.8
2018-01-10T22:50:05.399Z,31.8
2018-01-10T22:52:05.205Z,31.9
2018-01-10T22:54:06.256Z,31.7
2018-01-10T22:56:07.826Z,31.7
2018-01-10T22:58:05.688Z,31.7
2018-01-10T23:00:13.530Z,31.5
2018-01-10T23:02:05.364Z,31.8
2018-01-10T23:04:05.653Z,31.6
2018-01-10T23:06:05.413Z,31.5
2018-01-10T23:08:05.228Z,31.5
2018-01-10T23:10:05.966Z,31.5
2018-01-10T23:12:08.274Z,31.5
2018-01-10T23:14:05.229Z,31.6
2018-01-10T23:16:05.950Z,31.5
2018-01-10T23:18:05.947Z,31.5
2018-01-10T23:20:05.848Z,31.6
2018-01-10T23:22:05.804Z,31.6
2018-01-10T23:24:13.238Z,31.5
2018-01-10T23:26:10.588Z,31.5
2018-01-10T23:28:07.882Z,31.6
2018-01-10T23:30:08.204Z,31.7
2018-01-10T23:32:08.513Z,31.6
2018-01-10T23:34:05.803Z,31.7
2018-01-10T23:36:10.732Z,31.4
2018-01-10T23:38:05.766Z,31.4
2018-01-10T23:40:05.839Z,31.4
2018-01-10T23:42:05.626Z,31.4
2018-01-10T23:44:05.905Z,31.4
2018-01-10T23:46:05.760Z,31.5
2018-01-10T23:48:05.519Z,31.5
2018-01-10T23:50:08.055Z,31.5
2018-01-10T23:52:05.801Z,31.6
2018-01-10T23:54:05.172Z,31.5
2018-01-10T23:56:08.567Z,31.5
2018-01-10T23:58:07.844Z,31.6
